sensor_id;sensor_type;location;lat;lon;timestamp;P1;durP1;ratioP1;P2;durP2;ratioP2
51883;SDS011;37915;53.254;6.598;2023-12-14T00:02:04;13.07;;;6.10;;
51883;SDS011;37915;53.254;6.598;2023-12-14T00:04:30;12.02;;;5.28;;
51883;SDS011;37915;53.254;6.598;2023-12-14T00:06:56;9.27;;;5.35;;
51883;SDS011;37915;53.254;6.598;2023-12-14T00:09:21;9.90;;;5.47;;
51883;SDS011;37915;53.254;6.598;2023-12-14T00:11:47;9.13;;;5.32;;
51883;SDS011;37915;53.254;6.598;2023-12-14T00:14:12;10.32;;;5.65;;
51883;SDS011;37915;53.254;6.598;2023-12-14T00:16:38;11.68;;;5.32;;
51883;SDS011;37915;53.254;6.598;2023-12-14T00:19:04;13.05;;;6.28;;
51883;SDS011;37915;53.254;6.598;2023-12-14T00:21:30;11.55;;;5.90;;
51883;SDS011;37915;53.254;6.598;2023-12-14T00:23:55;13.88;;;5.45;;
51883;SDS011;37915;53.254;6.598;2023-12-14T00:26:21;12.60;;;6.28;;
51883;SDS011;37915;53.254;6.598;2023-12-14T00:28:47;12.57;;;5.57;;
51883;SDS011;37915;53.254;6.598;2023-12-14T00:31:12;15.98;;;6.50;;
51883;SDS011;37915;53.254;6.598;2023-12-14T00:33:38;11.55;;;5.72;;
51883;SDS011;37915;53.254;6.598;2023-12-14T00:36:04;13.57;;;5.45;;
51883;SDS011;37915;53.254;6.598;2023-12-14T00:38:29;15.70;;;5.40;;
51883;SDS011;37915;53.254;6.598;2023-12-14T00:40:55;11.05;;;5.15;;
51883;SDS011;37915;53.254;6.598;2023-12-14T00:43:21;13.45;;;5.38;;
51883;SDS011;37915;53.254;6.598;2023-12-14T00:45:47;13.95;;;5.28;;
51883;SDS011;37915;53.254;6.598;2023-12-14T00:48:12;18.10;;;6.32;;
51883;SDS011;37915;53.254;6.598;2023-12-14T00:50:38;13.52;;;6.60;;
51883;SDS011;37915;53.254;6.598;2023-12-14T00:53:04;19.48;;;6.57;;
51883;SDS011;37915;53.254;6.598;2023-12-14T00:55:29;15.02;;;6.20;;
51883;SDS011;37915;53.254;6.598;2023-12-14T00:57:55;12.52;;;6.30;;
51883;SDS011;37915;53.254;6.598;2023-12-14T01:00:21;15.43;;;5.38;;
51883;SDS011;37915;53.254;6.598;2023-12-14T01:02:46;13.10;;;6.20;;
51883;SDS011;37915;53.254;6.598;2023-12-14T01:05:12;13.52;;;6.72;;
51883;SDS011;37915;53.254;6.598;2023-12-14T01:07:38;15.43;;;6.75;;
51883;SDS011;37915;53.254;6.598;2023-12-14T01:10:03;15.60;;;6.80;;
51883;SDS011;37915;53.254;6.598;2023-12-14T01:12:29;15.85;;;6.95;;
51883;SDS011;37915;53.254;6.598;2023-12-14T01:14:55;11.63;;;6.72;;
51883;SDS011;37915;53.254;6.598;2023-12-14T01:17:21;15.30;;;7.10;;
51883;SDS011;37915;53.254;6.598;2023-12-14T01:19:46;16.45;;;7.47;;
51883;SDS011;37915;53.254;6.598;2023-12-14T01:22:12;17.35;;;6.85;;
51883;SDS011;37915;53.254;6.598;2023-12-14T01:24:38;19.23;;;7.70;;
51883;SDS011;37915;53.254;6.598;2023-12-14T01:27:05;14.50;;;7.30;;
51883;SDS011;37915;53.254;6.598;2023-12-14T01:29:31;17.92;;;7.47;;
51883;SDS011;37915;53.254;6.598;2023-12-14T01:31:57;13.45;;;6.88;;
51883;SDS011;37915;53.254;6.598;2023-12-14T01:34:23;15.88;;;7.32;;
51883;SDS011;37915;53.254;6.598;2023-12-14T01:36:49;15.55;;;6.35;;
51883;SDS011;37915;53.254;6.598;2023-12-14T01:39:15;16.48;;;7.32;;
51883;SDS011;37915;53.254;6.598;2023-12-14T01:41:41;17.00;;;6.88;;
51883;SDS011;37915;53.254;6.598;2023-12-14T01:44:07;15.80;;;7.25;;
51883;SDS011;37915;53.254;6.598;2023-12-14T01:46:33;15.45;;;6.60;;
51883;SDS011;37915;53.254;6.598;2023-12-14T01:48:59;16.77;;;6.68;;
51883;SDS011;37915;53.254;6.598;2023-12-14T01:51:25;15.63;;;7.10;;
51883;SDS011;37915;53.254;6.598;2023-12-14T01:53:51;14.07;;;6.15;;
51883;SDS011;37915;53.254;6.598;2023-12-14T01:56:17;18.38;;;6.93;;
51883;SDS011;37915;53.254;6.598;2023-12-14T01:58:43;16.70;;;7.57;;
51883;SDS011;37915;53.254;6.598;2023-12-14T02:03:48;14.65;;;6.15;;
51883;SDS011;37915;53.254;6.598;2023-12-14T02:06:15;12.27;;;5.85;;
51883;SDS011;37915;53.254;6.598;2023-12-14T02:08:41;12.85;;;6.07;;
51883;SDS011;37915;53.254;6.598;2023-12-14T02:11:07;18.35;;;6.63;;
51883;SDS011;37915;53.254;6.598;2023-12-14T02:13:33;13.68;;;6.90;;
51883;SDS011;37915;53.254;6.598;2023-12-14T02:16:00;13.65;;;5.95;;
51883;SDS011;37915;53.254;6.598;2023-12-14T02:18:26;16.85;;;7.32;;
51883;SDS011;37915;53.254;6.598;2023-12-14T02:20:52;14.07;;;6.15;;
51883;SDS011;37915;53.254;6.598;2023-12-14T02:23:18;17.63;;;7.15;;
51883;SDS011;37915;53.254;6.598;2023-12-14T02:25:44;17.77;;;6.90;;
51883;SDS011;37915;53.254;6.598;2023-12-14T02:28:10;15.27;;;7.45;;
51883;SDS011;37915;53.254;6.598;2023-12-14T02:30:36;15.88;;;6.90;;
51883;SDS011;37915;53.254;6.598;2023-12-14T02:33:02;13.98;;;6.57;;
51883;SDS011;37915;53.254;6.598;2023-12-14T02:35:28;16.85;;;7.32;;
51883;SDS011;37915;53.254;6.598;2023-12-14T02:37:54;14.13;;;5.80;;
51883;SDS011;37915;53.254;6.598;2023-12-14T02:40:20;13.75;;;6.28;;
51883;SDS011;37915;53.254;6.598;2023-12-14T02:42:46;18.55;;;6.15;;
51883;SDS011;37915;53.254;6.598;2023-12-14T02:45:12;13.15;;;6.13;;
51883;SDS011;37915;53.254;6.598;2023-12-14T02:47:38;18.50;;;6.57;;
51883;SDS011;37915;53.254;6.598;2023-12-14T02:50:05;14.50;;;5.68;;
51883;SDS011;37915;53.254;6.598;2023-12-14T02:52:31;23.33;;;6.22;;
51883;SDS011;37915;53.254;6.598;2023-12-14T02:54:57;12.60;;;5.70;;
51883;SDS011;37915;53.254;6.598;2023-12-14T02:57:23;12.13;;;6.15;;
51883;SDS011;37915;53.254;6.598;2023-12-14T02:59:49;14.70;;;7.00;;
51883;SDS011;37915;53.254;6.598;2023-12-14T03:02:15;14.80;;;6.45;;
51883;SDS011;37915;53.254;6.598;2023-12-14T03:04:41;16.80;;;6.20;;
51883;SDS011;37915;53.254;6.598;2023-12-14T03:07:07;15.45;;;7.57;;
51883;SDS011;37915;53.254;6.598;2023-12-14T03:09:33;13.80;;;6.30;;
51883;SDS011;37915;53.254;6.598;2023-12-14T03:12:00;15.43;;;6.88;;
51883;SDS011;37915;53.254;6.598;2023-12-14T03:14:31;20.70;;;7.55;;
51883;SDS011;37915;53.254;6.598;2023-12-14T03:16:57;14.65;;;6.57;;
51883;SDS011;37915;53.254;6.598;2023-12-14T03:19:23;16.55;;;7.35;;
51883;SDS011;37915;53.254;6.598;2023-12-14T03:21:49;14.52;;;6.32;;
51883;SDS011;37915;53.254;6.598;2023-12-14T03:24:15;23.15;;;7.32;;
51883;SDS011;37915;53.254;6.598;2023-12-14T03:26:41;18.02;;;6.90;;
51883;SDS011;37915;53.254;6.598;2023-12-14T03:29:07;19.08;;;7.05;;
51883;SDS011;37915;53.254;6.598;2023-12-14T03:31:34;14.48;;;6.68;;
51883;SDS011;37915;53.254;6.598;2023-12-14T03:34:00;12.23;;;6.50;;
51883;SDS011;37915;53.254;6.598;2023-12-14T03:36:26;18.70;;;7.00;;
51883;SDS011;37915;53.254;6.598;2023-12-14T03:38:52;16.42;;;7.15;;
51883;SDS011;37915;53.254;6.598;2023-12-14T03:41:18;21.80;;;8.05;;
51883;SDS011;37915;53.254;6.598;2023-12-14T03:43:44;22.02;;;7.57;;
51883;SDS011;37915;53.254;6.598;2023-12-14T03:46:11;14.10;;;6.93;;
51883;SDS011;37915;53.254;6.598;2023-12-14T03:48:37;19.92;;;7.75;;
51883;SDS011;37915;53.254;6.598;2023-12-14T03:51:03;16.70;;;8.77;;
51883;SDS011;37915;53.254;6.598;2023-12-14T03:53:29;18.33;;;8.38;;
51883;SDS011;37915;53.254;6.598;2023-12-14T03:55:55;17.00;;;8.38;;
51883;SDS011;37915;53.254;6.598;2023-12-14T03:58:21;15.60;;;7.78;;
51883;SDS011;37915;53.254;6.598;2023-12-14T04:00:47;17.58;;;8.38;;
51883;SDS011;37915;53.254;6.598;2023-12-14T04:03:13;20.35;;;8.27;;
51883;SDS011;37915;53.254;6.598;2023-12-14T04:05:39;20.88;;;8.32;;
51883;SDS011;37915;53.254;6.598;2023-12-14T04:08:06;16.95;;;8.43;;
51883;SDS011;37915;53.254;6.598;2023-12-14T04:10:32;19.70;;;9.05;;
51883;SDS011;37915;53.254;6.598;2023-12-14T04:12:58;19.13;;;9.25;;
51883;SDS011;37915;53.254;6.598;2023-12-14T04:15:24;16.02;;;8.35;;
51883;SDS011;37915;53.254;6.598;2023-12-14T04:17:50;21.13;;;8.50;;
51883;SDS011;37915;53.254;6.598;2023-12-14T04:20:16;20.75;;;8.52;;
51883;SDS011;37915;53.254;6.598;2023-12-14T04:22:43;15.95;;;8.20;;
51883;SDS011;37915;53.254;6.598;2023-12-14T04:25:09;15.50;;;8.35;;
51883;SDS011;37915;53.254;6.598;2023-12-14T04:27:35;14.50;;;8.02;;
51883;SDS011;37915;53.254;6.598;2023-12-14T04:30:02;20.40;;;9.00;;
51883;SDS011;37915;53.254;6.598;2023-12-14T04:32:29;20.75;;;7.65;;
51883;SDS011;37915;53.254;6.598;2023-12-14T04:34:55;21.02;;;8.45;;
51883;SDS011;37915;53.254;6.598;2023-12-14T04:37:22;20.33;;;8.63;;
51883;SDS011;37915;53.254;6.598;2023-12-14T04:39:48;16.92;;;8.05;;
51883;SDS011;37915;53.254;6.598;2023-12-14T04:42:14;21.02;;;8.18;;
51883;SDS011;37915;53.254;6.598;2023-12-14T04:44:40;20.20;;;8.07;;
51883;SDS011;37915;53.254;6.598;2023-12-14T04:47:06;15.48;;;7.60;;
51883;SDS011;37915;53.254;6.598;2023-12-14T04:49:33;18.85;;;8.13;;
51883;SDS011;37915;53.254;6.598;2023-12-14T04:51:59;14.40;;;7.88;;
51883;SDS011;37915;53.254;6.598;2023-12-14T04:54:25;16.13;;;7.60;;
51883;SDS011;37915;53.254;6.598;2023-12-14T04:56:51;16.58;;;8.70;;
51883;SDS011;37915;53.254;6.598;2023-12-14T04:59:17;15.73;;;8.00;;
51883;SDS011;37915;53.254;6.598;2023-12-14T05:01:43;24.27;;;9.02;;
51883;SDS011;37915;53.254;6.598;2023-12-14T05:04:09;19.70;;;8.80;;
51883;SDS011;37915;53.254;6.598;2023-12-14T05:06:35;16.90;;;9.00;;
51883;SDS011;37915;53.254;6.598;2023-12-14T05:09:01;14.75;;;8.00;;
51883;SDS011;37915;53.254;6.598;2023-12-14T05:11:30;19.30;;;8.35;;
51883;SDS011;37915;53.254;6.598;2023-12-14T05:13:56;17.90;;;8.52;;
51883;SDS011;37915;53.254;6.598;2023-12-14T05:16:23;18.40;;;8.32;;
51883;SDS011;37915;53.254;6.598;2023-12-14T05:18:52;19.10;;;8.82;;
51883;SDS011;37915;53.254;6.598;2023-12-14T05:21:19;17.77;;;8.77;;
51883;SDS011;37915;53.254;6.598;2023-12-14T05:23:45;33.88;;;9.65;;
51883;SDS011;37915;53.254;6.598;2023-12-14T05:26:11;29.17;;;8.90;;
51883;SDS011;37915;53.254;6.598;2023-12-14T05:28:37;16.77;;;8.43;;
51883;SDS011;37915;53.254;6.598;2023-12-14T05:31:03;17.25;;;8.48;;
51883;SDS011;37915;53.254;6.598;2023-12-14T05:33:29;21.50;;;8.00;;
51883;SDS011;37915;53.254;6.598;2023-12-14T05:35:56;18.80;;;9.10;;
51883;SDS011;37915;53.254;6.598;2023-12-14T05:38:22;20.13;;;8.50;;
51883;SDS011;37915;53.254;6.598;2023-12-14T05:40:49;16.25;;;7.53;;
51883;SDS011;37915;53.254;6.598;2023-12-14T05:43:15;18.77;;;8.25;;
51883;SDS011;37915;53.254;6.598;2023-12-14T05:45:41;21.48;;;9.30;;
51883;SDS011;37915;53.254;6.598;2023-12-14T05:48:06;15.23;;;7.82;;
51883;SDS011;37915;53.254;6.598;2023-12-14T05:50:32;19.17;;;8.80;;
51883;SDS011;37915;53.254;6.598;2023-12-14T05:52:58;16.48;;;8.27;;
51883;SDS011;37915;53.254;6.598;2023-12-14T05:55:23;26.98;;;9.55;;
51883;SDS011;37915;53.254;6.598;2023-12-14T05:57:49;24.33;;;9.05;;
51883;SDS011;37915;53.254;6.598;2023-12-14T06:00:15;18.52;;;8.90;;
51883;SDS011;37915;53.254;6.598;2023-12-14T06:02:41;23.80;;;8.95;;
51883;SDS011;37915;53.254;6.598;2023-12-14T06:05:07;17.65;;;8.65;;
51883;SDS011;37915;53.254;6.598;2023-12-14T06:07:34;14.40;;;7.65;;
51883;SDS011;37915;53.254;6.598;2023-12-14T06:10:00;18.58;;;8.88;;
51883;SDS011;37915;53.254;6.598;2023-12-14T06:12:26;16.95;;;8.63;;
51883;SDS011;37915;53.254;6.598;2023-12-14T06:14:52;19.85;;;8.63;;
51883;SDS011;37915;53.254;6.598;2023-12-14T06:17:18;18.38;;;8.93;;
51883;SDS011;37915;53.254;6.598;2023-12-14T06:19:44;18.85;;;8.48;;
51883;SDS011;37915;53.254;6.598;2023-12-14T06:22:10;23.88;;;9.93;;
51883;SDS011;37915;53.254;6.598;2023-12-14T06:24:35;18.55;;;8.57;;
51883;SDS011;37915;53.254;6.598;2023-12-14T06:27:01;23.88;;;7.82;;
51883;SDS011;37915;53.254;6.598;2023-12-14T06:29:27;16.92;;;8.80;;
51883;SDS011;37915;53.254;6.598;2023-12-14T06:31:53;22.52;;;8.77;;
51883;SDS011;37915;53.254;6.598;2023-12-14T06:34:18;24.20;;;8.32;;
51883;SDS011;37915;53.254;6.598;2023-12-14T06:36:44;17.80;;;8.32;;
51883;SDS011;37915;53.254;6.598;2023-12-14T06:39:10;17.42;;;8.38;;
51883;SDS011;37915;53.254;6.598;2023-12-14T06:41:36;19.13;;;8.35;;
51883;SDS011;37915;53.254;6.598;2023-12-14T06:44:02;22.08;;;8.60;;
51883;SDS011;37915;53.254;6.598;2023-12-14T06:46:28;16.05;;;7.93;;
51883;SDS011;37915;53.254;6.598;2023-12-14T06:48:54;28.05;;;9.70;;
51883;SDS011;37915;53.254;6.598;2023-12-14T06:51:20;21.70;;;9.07;;
51883;SDS011;37915;53.254;6.598;2023-12-14T06:53:47;19.27;;;8.63;;
51883;SDS011;37915;53.254;6.598;2023-12-14T06:56:13;22.38;;;9.55;;
51883;SDS011;37915;53.254;6.598;2023-12-14T06:58:42;29.48;;;8.40;;
51883;SDS011;37915;53.254;6.598;2023-12-14T07:01:13;23.80;;;8.98;;
51883;SDS011;37915;53.254;6.598;2023-12-14T07:03:40;20.50;;;9.60;;
51883;SDS011;37915;53.254;6.598;2023-12-14T07:06:16;23.23;;;8.88;;
51883;SDS011;37915;53.254;6.598;2023-12-14T07:08:43;21.30;;;9.07;;
51883;SDS011;37915;53.254;6.598;2023-12-14T07:11:09;19.77;;;9.00;;
51883;SDS011;37915;53.254;6.598;2023-12-14T07:13:36;19.60;;;9.02;;
51883;SDS011;37915;53.254;6.598;2023-12-14T07:16:09;30.15;;;9.02;;
51883;SDS011;37915;53.254;6.598;2023-12-14T07:18:39;20.73;;;8.57;;
51883;SDS011;37915;53.254;6.598;2023-12-14T07:21:07;26.42;;;9.63;;
51883;SDS011;37915;53.254;6.598;2023-12-14T07:23:33;24.77;;;10.02;;
51883;SDS011;37915;53.254;6.598;2023-12-14T07:26:00;23.98;;;9.05;;
51883;SDS011;37915;53.254;6.598;2023-12-14T07:28:26;20.20;;;8.40;;
51883;SDS011;37915;53.254;6.598;2023-12-14T07:30:52;22.73;;;9.98;;
51883;SDS011;37915;53.254;6.598;2023-12-14T07:33:17;28.42;;;9.90;;
51883;SDS011;37915;53.254;6.598;2023-12-14T07:35:43;21.77;;;9.73;;
51883;SDS011;37915;53.254;6.598;2023-12-14T07:38:09;20.20;;;9.40;;
51883;SDS011;37915;53.254;6.598;2023-12-14T07:40:35;19.85;;;9.77;;
51883;SDS011;37915;53.254;6.598;2023-12-14T07:43:03;23.58;;;9.50;;
51883;SDS011;37915;53.254;6.598;2023-12-14T07:45:29;19.85;;;8.48;;
51883;SDS011;37915;53.254;6.598;2023-12-14T07:47:55;20.30;;;9.02;;
51883;SDS011;37915;53.254;6.598;2023-12-14T07:50:21;29.33;;;10.57;;
51883;SDS011;37915;53.254;6.598;2023-12-14T07:52:46;26.48;;;10.13;;
51883;SDS011;37915;53.254;6.598;2023-12-14T07:55:12;23.00;;;9.57;;
51883;SDS011;37915;53.254;6.598;2023-12-14T07:57:42;24.98;;;10.10;;
51883;SDS011;37915;53.254;6.598;2023-12-14T08:00:08;25.77;;;11.35;;
51883;SDS011;37915;53.254;6.598;2023-12-14T08:02:35;28.65;;;9.35;;
51883;SDS011;37915;53.254;6.598;2023-12-14T08:05:01;21.10;;;9.98;;
51883;SDS011;37915;53.254;6.598;2023-12-14T08:07:26;21.40;;;9.95;;
51883;SDS011;37915;53.254;6.598;2023-12-14T08:09:58;23.67;;;11.13;;
51883;SDS011;37915;53.254;6.598;2023-12-14T08:12:24;26.35;;;10.23;;
51883;SDS011;37915;53.254;6.598;2023-12-14T08:14:51;23.33;;;10.00;;
51883;SDS011;37915;53.254;6.598;2023-12-14T08:17:17;23.75;;;10.55;;
51883;SDS011;37915;53.254;6.598;2023-12-14T08:19:43;26.52;;;10.55;;
51883;SDS011;37915;53.254;6.598;2023-12-14T08:22:10;29.92;;;10.27;;
51883;SDS011;37915;53.254;6.598;2023-12-14T08:24:41;26.63;;;9.73;;
51883;SDS011;37915;53.254;6.598;2023-12-14T08:27:07;23.75;;;9.98;;
51883;SDS011;37915;53.254;6.598;2023-12-14T08:29:32;36.50;;;11.68;;
51883;SDS011;37915;53.254;6.598;2023-12-14T08:31:58;25.65;;;10.32;;
51883;SDS011;37915;53.254;6.598;2023-12-14T08:34:27;26.33;;;10.80;;
51883;SDS011;37915;53.254;6.598;2023-12-14T08:36:53;24.80;;;10.77;;
51883;SDS011;37915;53.254;6.598;2023-12-14T08:39:19;23.05;;;9.93;;
51883;SDS011;37915;53.254;6.598;2023-12-14T08:41:47;30.08;;;10.23;;
51883;SDS011;37915;53.254;6.598;2023-12-14T08:44:14;22.75;;;11.13;;
51883;SDS011;37915;53.254;6.598;2023-12-14T08:46:44;23.02;;;10.60;;
51883;SDS011;37915;53.254;6.598;2023-12-14T08:49:11;34.80;;;11.65;;
51883;SDS011;37915;53.254;6.598;2023-12-14T08:51:37;30.88;;;11.48;;
51883;SDS011;37915;53.254;6.598;2023-12-14T08:54:03;35.20;;;12.73;;
51883;SDS011;37915;53.254;6.598;2023-12-14T08:56:29;26.17;;;12.05;;
51883;SDS011;37915;53.254;6.598;2023-12-14T08:58:55;33.78;;;12.48;;
51883;SDS011;37915;53.254;6.598;2023-12-14T09:01:22;30.45;;;13.05;;
51883;SDS011;37915;53.254;6.598;2023-12-14T09:03:48;31.05;;;12.27;;
51883;SDS011;37915;53.254;6.598;2023-12-14T09:06:15;25.40;;;10.77;;
51883;SDS011;37915;53.254;6.598;2023-12-14T09:08:42;29.23;;;12.93;;
51883;SDS011;37915;53.254;6.598;2023-12-14T09:11:08;25.25;;;10.82;;
51883;SDS011;37915;53.254;6.598;2023-12-14T09:13:34;25.33;;;10.93;;
51883;SDS011;37915;53.254;6.598;2023-12-14T09:16:00;23.42;;;12.40;;
51883;SDS011;37915;53.254;6.598;2023-12-14T09:18:25;22.77;;;11.05;;
51883;SDS011;37915;53.254;6.598;2023-12-14T09:20:51;23.33;;;11.05;;
51883;SDS011;37915;53.254;6.598;2023-12-14T09:23:17;20.52;;;10.82;;
51883;SDS011;37915;53.254;6.598;2023-12-14T09:25:44;17.25;;;10.25;;
51883;SDS011;37915;53.254;6.598;2023-12-14T09:28:10;23.30;;;11.32;;
51883;SDS011;37915;53.254;6.598;2023-12-14T09:30:36;21.65;;;10.93;;
51883;SDS011;37915;53.254;6.598;2023-12-14T09:33:01;24.88;;;11.30;;
51883;SDS011;37915;53.254;6.598;2023-12-14T09:35:27;24.45;;;11.57;;
51883;SDS011;37915;53.254;6.598;2023-12-14T09:37:53;22.58;;;10.50;;
51883;SDS011;37915;53.254;6.598;2023-12-14T09:40:18;24.67;;;11.20;;
51883;SDS011;37915;53.254;6.598;2023-12-14T09:42:44;27.00;;;11.43;;
51883;SDS011;37915;53.254;6.598;2023-12-14T09:45:10;20.70;;;11.23;;
51883;SDS011;37915;53.254;6.598;2023-12-14T09:47:37;18.83;;;10.27;;
51883;SDS011;37915;53.254;6.598;2023-12-14T09:50:03;22.75;;;11.43;;
51883;SDS011;37915;53.254;6.598;2023-12-14T09:52:30;24.40;;;11.82;;
51883;SDS011;37915;53.254;6.598;2023-12-14T09:54:56;27.08;;;11.95;;
51883;SDS011;37915;53.254;6.598;2023-12-14T09:57:22;30.00;;;11.55;;
51883;SDS011;37915;53.254;6.598;2023-12-14T09:59:52;28.45;;;11.43;;
51883;SDS011;37915;53.254;6.598;2023-12-14T10:02:18;24.27;;;10.30;;
51883;SDS011;37915;53.254;6.598;2023-12-14T10:04:45;25.25;;;9.63;;
51883;SDS011;37915;53.254;6.598;2023-12-14T10:07:11;24.25;;;10.57;;
51883;SDS011;37915;53.254;6.598;2023-12-14T10:09:37;26.60;;;11.45;;
51883;SDS011;37915;53.254;6.598;2023-12-14T10:12:07;20.27;;;11.02;;
51883;SDS011;37915;53.254;6.598;2023-12-14T10:14:34;20.52;;;10.35;;
51883;SDS011;37915;53.254;6.598;2023-12-14T10:17:14;21.40;;;11.07;;
51883;SDS011;37915;53.254;6.598;2023-12-14T10:19:44;22.52;;;11.05;;
51883;SDS011;37915;53.254;6.598;2023-12-14T10:22:11;25.40;;;11.10;;
51883;SDS011;37915;53.254;6.598;2023-12-14T10:24:38;28.90;;;11.70;;
51883;SDS011;37915;53.254;6.598;2023-12-14T10:27:05;28.33;;;11.00;;
51883;SDS011;37915;53.254;6.598;2023-12-14T10:29:34;19.55;;;11.27;;
51883;SDS011;37915;53.254;6.598;2023-12-14T10:32:05;22.83;;;11.25;;
51883;SDS011;37915;53.254;6.598;2023-12-14T10:34:32;24.40;;;11.77;;
51883;SDS011;37915;53.254;6.598;2023-12-14T10:36:59;26.90;;;11.15;;
51883;SDS011;37915;53.254;6.598;2023-12-14T10:39:25;26.23;;;11.13;;
51883;SDS011;37915;53.254;6.598;2023-12-14T10:41:53;19.13;;;11.07;;
51883;SDS011;37915;53.254;6.598;2023-12-14T10:44:21;20.73;;;11.23;;
51883;SDS011;37915;53.254;6.598;2023-12-14T10:46:52;29.60;;;11.13;;
51883;SDS011;37915;53.254;6.598;2023-12-14T10:49:21;21.88;;;11.85;;
51883;SDS011;37915;53.254;6.598;2023-12-14T10:51:54;39.97;;;12.10;;
51883;SDS011;37915;53.254;6.598;2023-12-14T10:54:22;24.55;;;11.40;;
51883;SDS011;37915;53.254;6.598;2023-12-14T10:56:50;21.83;;;11.07;;
51883;SDS011;37915;53.254;6.598;2023-12-14T10:59:20;19.63;;;11.00;;
51883;SDS011;37915;53.254;6.598;2023-12-14T11:01:51;21.85;;;11.90;;
51883;SDS011;37915;53.254;6.598;2023-12-14T11:04:23;21.23;;;10.55;;
51883;SDS011;37915;53.254;6.598;2023-12-14T11:06:52;26.23;;;11.77;;
51883;SDS011;37915;53.254;6.598;2023-12-14T11:09:21;28.23;;;11.63;;
51883;SDS011;37915;53.254;6.598;2023-12-14T11:11:55;19.77;;;10.82;;
51883;SDS011;37915;53.254;6.598;2023-12-14T11:14:22;20.13;;;11.50;;
51883;SDS011;37915;53.254;6.598;2023-12-14T11:16:50;21.65;;;11.07;;
51883;SDS011;37915;53.254;6.598;2023-12-14T11:21:48;19.67;;;11.95;;
51883;SDS011;37915;53.254;6.598;2023-12-14T11:24:37;26.88;;;13.02;;
51883;SDS011;37915;53.254;6.598;2023-12-14T11:27:07;21.65;;;12.38;;
51883;SDS011;37915;53.254;6.598;2023-12-14T11:29:33;27.42;;;12.13;;
51883;SDS011;37915;53.254;6.598;2023-12-14T11:32:00;22.77;;;11.60;;
51883;SDS011;37915;53.254;6.598;2023-12-14T11:34:26;25.60;;;12.00;;
51883;SDS011;37915;53.254;6.598;2023-12-14T11:36:54;21.58;;;11.55;;
51883;SDS011;37915;53.254;6.598;2023-12-14T11:39:20;21.27;;;11.75;;
51883;SDS011;37915;53.254;6.598;2023-12-14T11:42:02;26.15;;;13.15;;
51883;SDS011;37915;53.254;6.598;2023-12-14T11:44:29;26.27;;;12.73;;
51883;SDS011;37915;53.254;6.598;2023-12-14T11:46:58;28.02;;;14.20;;
51883;SDS011;37915;53.254;6.598;2023-12-14T11:49:24;22.13;;;11.75;;
51883;SDS011;37915;53.254;6.598;2023-12-14T11:51:54;22.60;;;12.45;;
51883;SDS011;37915;53.254;6.598;2023-12-14T11:54:20;29.52;;;12.57;;
51883;SDS011;37915;53.254;6.598;2023-12-14T11:56:47;27.60;;;14.05;;
51883;SDS011;37915;53.254;6.598;2023-12-14T11:59:15;24.13;;;13.43;;
51883;SDS011;37915;53.254;6.598;2023-12-14T12:01:57;20.83;;;11.48;;
51883;SDS011;37915;53.254;6.598;2023-12-14T12:04:25;25.42;;;13.80;;
51883;SDS011;37915;53.254;6.598;2023-12-14T12:07:01;29.50;;;12.73;;
51883;SDS011;37915;53.254;6.598;2023-12-14T12:09:32;21.58;;;11.68;;
51883;SDS011;37915;53.254;6.598;2023-12-14T12:11:59;22.00;;;10.77;;
51883;SDS011;37915;53.254;6.598;2023-12-14T12:14:24;21.50;;;10.45;;
51883;SDS011;37915;53.254;6.598;2023-12-14T12:16:51;21.73;;;12.40;;
51883;SDS011;37915;53.254;6.598;2023-12-14T12:19:18;19.05;;;10.90;;
51883;SDS011;37915;53.254;6.598;2023-12-14T12:21:43;21.83;;;11.38;;
51883;SDS011;37915;53.254;6.598;2023-12-14T12:24:09;23.38;;;11.88;;
51883;SDS011;37915;53.254;6.598;2023-12-14T12:26:35;16.60;;;10.75;;
51883;SDS011;37915;53.254;6.598;2023-12-14T12:29:01;23.35;;;10.50;;
51883;SDS011;37915;53.254;6.598;2023-12-14T12:31:28;17.42;;;9.00;;
51883;SDS011;37915;53.254;6.598;2023-12-14T12:33:54;17.60;;;10.23;;
51883;SDS011;37915;53.254;6.598;2023-12-14T12:36:20;14.98;;;9.10;;
51883;SDS011;37915;53.254;6.598;2023-12-14T12:38:46;18.48;;;9.50;;
51883;SDS011;37915;53.254;6.598;2023-12-14T12:41:12;15.73;;;9.07;;
51883;SDS011;37915;53.254;6.598;2023-12-14T12:43:37;15.85;;;8.95;;
51883;SDS011;37915;53.254;6.598;2023-12-14T12:46:03;19.30;;;9.57;;
51883;SDS011;37915;53.254;6.598;2023-12-14T12:48:29;18.38;;;10.27;;
51883;SDS011;37915;53.254;6.598;2023-12-14T12:50:54;17.75;;;9.68;;
51883;SDS011;37915;53.254;6.598;2023-12-14T12:53:20;18.77;;;11.93;;
51883;SDS011;37915;53.254;6.598;2023-12-14T12:55:46;18.63;;;10.45;;
51883;SDS011;37915;53.254;6.598;2023-12-14T12:58:11;18.85;;;10.02;;
51883;SDS011;37915;53.254;6.598;2023-12-14T13:00:39;15.88;;;9.10;;
51883;SDS011;37915;53.254;6.598;2023-12-14T13:03:05;15.40;;;10.10;;
51883;SDS011;37915;53.254;6.598;2023-12-14T13:05:31;17.65;;;10.00;;
51883;SDS011;37915;53.254;6.598;2023-12-14T13:07:56;22.02;;;9.98;;
51883;SDS011;37915;53.254;6.598;2023-12-14T13:10:23;20.42;;;9.90;;
51883;SDS011;37915;53.254;6.598;2023-12-14T13:12:52;18.13;;;11.20;;
51883;SDS011;37915;53.254;6.598;2023-12-14T13:15:18;15.57;;;9.38;;
51883;SDS011;37915;53.254;6.598;2023-12-14T13:17:44;15.68;;;9.98;;
51883;SDS011;37915;53.254;6.598;2023-12-14T13:20:10;14.82;;;9.25;;
51883;SDS011;37915;53.254;6.598;2023-12-14T13:22:36;19.77;;;9.88;;
51883;SDS011;37915;53.254;6.598;2023-12-14T13:25:02;17.08;;;10.10;;
51883;SDS011;37915;53.254;6.598;2023-12-14T13:27:28;16.63;;;10.30;;
51883;SDS011;37915;53.254;6.598;2023-12-14T13:29:54;17.95;;;9.55;;
51883;SDS011;37915;53.254;6.598;2023-12-14T13:32:20;16.33;;;9.93;;
51883;SDS011;37915;53.254;6.598;2023-12-14T13:34:45;23.15;;;9.85;;
51883;SDS011;37915;53.254;6.598;2023-12-14T13:37:11;18.60;;;10.05;;
51883;SDS011;37915;53.254;6.598;2023-12-14T13:39:37;16.70;;;9.75;;
51883;SDS011;37915;53.254;6.598;2023-12-14T13:42:06;22.17;;;10.77;;
51883;SDS011;37915;53.254;6.598;2023-12-14T13:44:32;16.20;;;10.00;;
51883;SDS011;37915;53.254;6.598;2023-12-14T13:47:00;17.88;;;10.38;;
51883;SDS011;37915;53.254;6.598;2023-12-14T13:49:26;19.73;;;10.27;;
51883;SDS011;37915;53.254;6.598;2023-12-14T13:51:52;18.23;;;9.45;;
51883;SDS011;37915;53.254;6.598;2023-12-14T13:54:18;17.60;;;9.45;;
51883;SDS011;37915;53.254;6.598;2023-12-14T13:56:43;18.50;;;10.02;;
51883;SDS011;37915;53.254;6.598;2023-12-14T13:59:09;18.45;;;10.27;;
51883;SDS011;37915;53.254;6.598;2023-12-14T14:01:35;21.30;;;10.15;;
51883;SDS011;37915;53.254;6.598;2023-12-14T14:04:00;18.27;;;10.90;;
51883;SDS011;37915;53.254;6.598;2023-12-14T14:06:26;18.73;;;10.55;;
51883;SDS011;37915;53.254;6.598;2023-12-14T14:08:51;23.48;;;10.48;;
51883;SDS011;37915;53.254;6.598;2023-12-14T14:11:17;20.25;;;10.15;;
51883;SDS011;37915;53.254;6.598;2023-12-14T14:13:43;24.23;;;11.38;;
51883;SDS011;37915;53.254;6.598;2023-12-14T14:16:08;18.88;;;10.25;;
51883;SDS011;37915;53.254;6.598;2023-12-14T14:18:34;18.05;;;9.77;;
51883;SDS011;37915;53.254;6.598;2023-12-14T14:21:00;17.67;;;10.98;;
51883;SDS011;37915;53.254;6.598;2023-12-14T14:23:26;17.40;;;10.95;;
51883;SDS011;37915;53.254;6.598;2023-12-14T14:25:52;15.93;;;9.93;;
51883;SDS011;37915;53.254;6.598;2023-12-14T14:28:21;17.77;;;10.20;;
51883;SDS011;37915;53.254;6.598;2023-12-14T14:30:47;20.05;;;10.25;;
51883;SDS011;37915;53.254;6.598;2023-12-14T14:33:14;19.63;;;10.32;;